Time;durP1;ratioP1;P1;durP2;ratioP2;P2;SDS_P1;SDS_P2;PMS_P1;PMS_P2;Temp;Humidity;BMP_temperature;BMP_pressure;BME280_temperature;BME280_humidity;BME280_pressure;Samples;Min_cycle;Max_cycle;Signal;HPM_P1;HPM_P2
2024/02/13 00:00:58;;;;;;;14.03;10.50;;;5.40;1.00;;;;;;5020923;28;20206;-84
2024/02/13 00:03:24;;;;;;;15.30;9.40;;;5.40;1.00;;;;;;5011503;28;20496;-83
2024/02/13 00:05:51;;;;;;;16.30;10.17;;;5.40;1.00;;;;;;5012165;28;20221;-83
2024/02/13 00:08:17;;;;;;;21.35;10.13;;;5.40;1.00;;;;;;5020972;28;20461;-84
2024/02/13 00:10:43;;;;;;;20.17;9.90;;;5.40;1.00;;;;;;5022472;28;20209;-84
2024/02/13 00:13:08;;;;;;;11.13;8.23;;;5.40;1.00;;;;;;5022549;28;20481;-82
2024/02/13 00:15:37;;;;;;;18.50;10.63;;;5.40;1.00;;;;;;4998290;28;20202;-84
2024/02/13 00:18:03;;;;;;;20.77;9.43;;;5.40;1.00;;;;;;5016268;28;20228;-85
2024/02/13 00:20:29;;;;;;;13.90;9.20;;;5.40;1.00;;;;;;5019091;28;20470;-84
2024/02/13 00:22:55;;;;;;;13.70;8.43;;;5.40;1.00;;;;;;5001537;28;20265;-85
2024/02/13 00:25:21;;;;;;;15.85;9.00;;;5.30;1.00;;;;;;5024395;28;22411;-84
2024/02/13 00:27:46;;;;;;;11.30;7.70;;;5.30;1.00;;;;;;5011824;28;20233;-84
2024/02/13 00:30:14;;;;;;;12.23;8.00;;;5.30;1.00;;;;;;5024664;28;20261;-84
2024/02/13 00:32:40;;;;;;;16.30;10.07;;;5.30;1.00;;;;;;5003387;28;20207;-85
2024/02/13 00:35:06;;;;;;;18.00;8.73;;;5.30;1.00;;;;;;5010569;28;20197;-84
2024/02/13 00:37:32;;;;;;;14.95;12.30;;;5.30;1.00;;;;;;5005714;28;20211;-85
2024/02/13 00:39:58;;;;;;;11.43;8.18;;;5.30;1.00;;;;;;5017296;28;20552;-83
2024/02/13 00:42:26;;;;;;;18.27;9.52;;;5.20;1.00;;;;;;5019598;28;20279;-85
2024/02/13 00:44:51;;;;;;;19.52;9.82;;;5.20;1.00;;;;;;5022830;28;20174;-85
2024/02/13 00:47:17;;;;;;;12.43;8.43;;;5.20;1.00;;;;;;5021283;28;20189;-84
2024/02/13 00:49:43;;;;;;;12.70;9.70;;;5.20;1.00;;;;;;5015798;28;20191;-86
2024/02/13 00:52:09;;;;;;;15.90;10.60;;;5.20;1.00;;;;;;4995078;28;20444;-84
2024/02/13 00:54:35;;;;;;;15.90;9.27;;;5.20;1.00;;;;;;5015812;28;20441;-84
2024/02/13 00:57:02;;;;;;;14.90;9.32;;;5.20;1.00;;;;;;5019813;28;20233;-84
2024/02/13 00:59:30;;;;;;;14.75;9.20;;;5.20;1.00;;;;;;5012653;28;20310;-84
2024/02/13 01:01:56;;;;;;;17.52;9.70;;;5.20;1.00;;;;;;5013445;28;20369;-84
2024/02/13 01:04:21;;;;;;;13.10;10.23;;;5.20;1.00;;;;;;5014910;28;21227;-84
2024/02/13 01:06:47;;;;;;;21.00;10.30;;;5.10;1.00;;;;;;5017185;28;20237;-83
2024/02/13 01:09:14;;;;;;;15.20;9.80;;;5.10;1.00;;;;;;5001389;28;20600;-84
2024/02/13 01:11:39;;;;;;;22.25;10.00;;;5.10;1.00;;;;;;4997539;28;20178;-83
2024/02/13 01:14:05;;;;;;;17.33;11.00;;;5.10;1.00;;;;;;5002607;28;20195;-85
2024/02/13 01:16:31;;;;;;;17.27;11.33;;;5.10;1.00;;;;;;5004101;28;20205;-85
2024/02/13 01:18:57;;;;;;;15.03;10.50;;;5.10;1.00;;;;;;5017525;28;20205;-85
2024/02/13 01:21:23;;;;;;;21.77;10.50;;;5.10;1.00;;;;;;5013079;28;20469;-85
2024/02/13 01:23:49;;;;;;;13.40;10.00;;;5.10;1.00;;;;;;5008059;28;20179;-83
2024/02/13 01:26:18;;;;;;;15.88;9.85;;;5.10;1.00;;;;;;4995255;28;20301;-82
2024/02/13 01:28:44;;;;;;;18.52;10.93;;;5.10;1.00;;;;;;5012100;28;20202;-85
2024/02/13 01:31:11;;;;;;;18.83;11.40;;;5.10;1.00;;;;;;5008759;28;20186;-83
2024/02/13 01:33:36;;;;;;;14.50;10.23;;;5.10;1.00;;;;;;5015271;28;20185;-83
2024/02/13 01:36:04;;;;;;;15.47;9.90;;;5.10;1.00;;;;;;5008709;28;20179;-84
2024/02/13 01:38:30;;;;;;;21.05;11.27;;;5.10;1.00;;;;;;5002815;28;20215;-85
2024/02/13 01:40:56;;;;;;;19.80;11.70;;;5.10;1.00;;;;;;5011268;28;20206;-82
2024/02/13 01:43:22;;;;;;;18.77;12.70;;;5.10;1.00;;;;;;5000528;28;20191;-84
2024/02/13 01:45:48;;;;;;;19.38;12.32;;;5.10;1.00;;;;;;5003261;28;20754;-84
2024/02/13 01:48:17;;;;;;;21.33;11.87;;;5.10;1.00;;;;;;5017509;28;20230;-84
2024/02/13 01:50:43;;;;;;;20.15;13.13;;;5.10;1.00;;;;;;5018095;28;20446;-84
2024/02/13 01:53:10;;;;;;;17.67;12.32;;;5.10;1.00;;;;;;5019479;28;20210;-85
2024/02/13 01:55:36;;;;;;;20.17;12.02;;;5.10;1.00;;;;;;5018106;28;20267;-85
2024/02/13 01:58:04;;;;;;;16.50;11.27;;;5.10;1.00;;;;;;5024378;28;20206;-85
2024/02/13 02:00:33;;;;;;;19.92;11.00;;;5.10;1.00;;;;;;5025978;28;20210;-85
2024/02/13 02:03:00;;;;;;;23.23;12.25;;;5.10;1.00;;;;;;5002448;28;20229;-85
2024/02/13 02:05:26;;;;;;;19.58;11.63;;;5.10;1.00;;;;;;5010262;28;20324;-86
2024/02/13 02:07:53;;;;;;;22.33;11.20;;;5.10;1.00;;;;;;5015793;28;20292;-84
2024/02/13 02:10:19;;;;;;;20.58;12.23;;;5.10;1.00;;;;;;5020632;28;20198;-84
2024/02/13 02:12:49;;;;;;;18.17;11.80;;;5.10;1.00;;;;;;5010807;28;20182;-84
2024/02/13 02:15:16;;;;;;;20.65;11.93;;;5.00;1.00;;;;;;5019670;28;20269;-85
2024/02/13 02:17:51;;;;;;;20.00;12.63;;;5.00;1.00;;;;;;5017993;28;20202;-84
2024/02/13 02:20:19;;;;;;;21.25;11.98;;;5.00;1.00;;;;;;5012957;28;20193;-83
2024/02/13 02:22:45;;;;;;;16.70;10.90;;;5.00;1.00;;;;;;5010071;28;20204;-85
2024/02/13 02:25:11;;;;;;;26.70;13.80;;;5.00;1.00;;;;;;5025308;28;20182;-84
2024/02/13 02:27:38;;;;;;;19.83;14.00;;;5.00;1.00;;;;;;5018287;28;20814;-85
2024/02/13 02:30:06;;;;;;;22.75;10.38;;;4.90;1.00;;;;;;5004534;28;20461;-86
2024/02/13 02:32:32;;;;;;;18.33;10.98;;;4.90;1.00;;;;;;5021687;28;20186;-84
2024/02/13 02:34:59;;;;;;;23.38;10.80;;;5.00;1.00;;;;;;5013400;28;20324;-85
2024/02/13 02:37:24;;;;;;;19.45;11.60;;;4.90;1.00;;;;;;5012694;28;20186;-82
2024/02/13 02:39:50;;;;;;;21.50;11.63;;;4.90;1.00;;;;;;5013142;28;20201;-84
2024/02/13 02:42:16;;;;;;;15.03;9.93;;;4.90;1.00;;;;;;5017481;28;20927;-83
2024/02/13 02:44:43;;;;;;;23.17;11.80;;;4.90;1.00;;;;;;5017860;28;20214;-84
2024/02/13 02:47:12;;;;;;;16.92;10.90;;;4.90;1.00;;;;;;5021417;28;20527;-84
2024/02/13 02:49:37;;;;;;;21.83;11.38;;;5.00;1.00;;;;;;5013626;28;20189;-84
2024/02/13 02:52:07;;;;;;;16.77;10.00;;;5.00;1.00;;;;;;5016675;28;20191;-83
2024/02/13 02:54:35;;;;;;;14.52;10.55;;;5.00;1.00;;;;;;5024763;28;20214;-83
2024/02/13 02:57:01;;;;;;;17.80;11.18;;;5.00;1.00;;;;;;5017627;28;20182;-84
2024/02/13 02:59:28;;;;;;;18.10;10.73;;;5.00;1.00;;;;;;5026286;28;20301;-84
2024/02/13 03:01:54;;;;;;;27.13;11.50;;;5.00;1.00;;;;;;5023250;28;20175;-84
2024/02/13 03:04:19;;;;;;;17.03;10.30;;;5.00;1.00;;;;;;5007264;28;20214;-84
2024/02/13 03:06:45;;;;;;;19.57;11.93;;;5.00;1.00;;;;;;5027782;28;20186;-84
2024/02/13 03:09:10;;;;;;;18.77;10.30;;;5.00;1.00;;;;;;5020188;28;21197;-84
2024/02/13 03:11:36;;;;;;;23.97;11.77;;;5.00;1.00;;;;;;5015798;28;20186;-83
2024/02/13 03:14:01;;;;;;;19.67;11.53;;;5.00;1.00;;;;;;5021048;28;20189;-82
2024/02/13 03:16:29;;;;;;;17.13;9.37;;;5.00;1.00;;;;;;5027359;28;20228;-84
2024/02/13 03:18:55;;;;;;;16.80;9.98;;;5.00;1.00;;;;;;5027534;28;20198;-85
2024/02/13 03:21:21;;;;;;;16.40;9.20;;;5.00;1.00;;;;;;5018607;28;20799;-84
2024/02/13 03:23:48;;;;;;;21.73;10.95;;;5.00;1.00;;;;;;5007018;28;20183;-85
2024/02/13 03:26:13;;;;;;;20.48;9.35;;;5.00;1.00;;;;;;5009803;28;20193;-84
2024/02/13 03:28:39;;;;;;;18.97;10.00;;;5.00;1.00;;;;;;5009835;28;20194;-86
2024/02/13 03:31:05;;;;;;;14.57;9.23;;;5.00;1.00;;;;;;5011380;28;20209;-84
2024/02/13 03:33:30;;;;;;;19.00;10.03;;;5.00;1.00;;;;;;5007087;28;20329;-84
2024/02/13 03:35:56;;;;;;;18.43;9.57;;;5.00;1.00;;;;;;5015012;28;20191;-85
2024/02/13 03:38:22;;;;;;;19.77;9.20;;;5.00;1.00;;;;;;5002805;28;20224;-84
2024/02/13 03:40:47;;;;;;;17.83;9.40;;;5.00;1.00;;;;;;5024996;28;20252;-85
2024/02/13 03:43:13;;;;;;;17.60;8.27;;;5.00;1.00;;;;;;5020986;28;20233;-84
2024/02/13 03:45:38;;;;;;;14.47;8.27;;;5.00;1.00;;;;;;5020796;28;20193;-86
2024/02/13 03:48:07;;;;;;;17.23;9.33;;;5.00;1.00;;;;;;5030581;28;20221;-85
2024/02/13 03:50:33;;;;;;;13.85;7.70;;;5.00;1.00;;;;;;5023176;28;20225;-85
2024/02/13 03:52:58;;;;;;;14.87;8.40;;;5.00;1.00;;;;;;5028252;28;20190;-86
2024/02/13 03:55:24;;;;;;;13.47;8.93;;;5.00;1.00;;;;;;5026604;28;20237;-85
2024/02/13 03:57:49;;;;;;;19.97;7.60;;;4.90;1.00;;;;;;5026413;28;20209;-85
2024/02/13 04:00:15;;;;;;;14.87;7.83;;;4.90;1.00;;;;;;5019471;28;20206;-85
2024/02/13 04:02:41;;;;;;;12.90;6.00;;;4.90;1.00;;;;;;5020231;28;20736;-84
2024/02/13 04:05:07;;;;;;;17.57;8.50;;;4.90;1.00;;;;;;5020086;28;20369;-85
2024/02/13 04:07:33;;;;;;;10.77;5.97;;;4.90;1.00;;;;;;5007422;28;20466;-84
2024/02/13 04:09:59;;;;;;;11.85;6.28;;;4.90;1.00;;;;;;5006428;28;20198;-84
2024/02/13 04:12:25;;;;;;;11.30;6.50;;;4.90;1.00;;;;;;5019498;28;20187;-83
2024/02/13 04:14:50;;;;;;;9.60;5.20;;;4.90;1.00;;;;;;5003200;28;20454;-83
2024/02/13 04:17:18;;;;;;;8.73;6.50;;;4.90;1.00;;;;;;5018368;28;20205;-85
2024/02/13 04:19:43;;;;;;;9.07;5.80;;;4.90;1.00;;;;;;5015439;28;20249;-84
2024/02/13 04:22:09;;;;;;;10.07;5.87;;;4.90;1.00;;;;;;5018263;28;20211;-85
2024/02/13 04:24:34;;;;;;;14.00;5.57;;;4.90;1.00;;;;;;5016311;28;20183;-85
2024/02/13 04:27:00;;;;;;;14.40;5.10;;;4.90;1.00;;;;;;5027580;28;20189;-84
2024/02/13 04:29:25;;;;;;;10.07;4.90;;;4.90;1.00;;;;;;5015229;28;20293;-84
2024/02/13 04:31:51;;;;;;;9.30;5.80;;;4.90;1.00;;;;;;5013248;28;20652;-84
2024/02/13 04:34:16;;;;;;;8.80;4.90;;;4.90;1.00;;;;;;5015861;28;20211;-85
2024/02/13 04:36:42;;;;;;;9.73;6.20;;;4.90;1.00;;;;;;5006924;28;20183;-85
2024/02/13 04:39:08;;;;;;;9.63;5.33;;;4.90;1.00;;;;;;5016489;28;20203;-84
2024/02/13 04:41:33;;;;;;;14.90;6.40;;;4.90;1.00;;;;;;5012489;28;20491;-85
2024/02/13 04:43:59;;;;;;;9.43;5.67;;;4.90;1.00;;;;;;5003832;28;20178;-83
2024/02/13 04:46:24;;;;;;;8.03;5.13;;;4.80;1.00;;;;;;5012602;28;20186;-85
2024/02/13 04:48:51;;;;;;;12.00;6.13;;;4.80;1.00;;;;;;5024779;28;20233;-82
2024/02/13 04:51:17;;;;;;;9.82;6.65;;;4.80;1.00;;;;;;5010415;28;20190;-86
2024/02/13 04:53:43;;;;;;;9.17;5.63;;;4.80;1.00;;;;;;5005701;28;20183;-85
2024/02/13 04:56:09;;;;;;;8.13;5.20;;;4.80;1.00;;;;;;5022530;28;20436;-85
2024/02/13 04:58:36;;;;;;;11.47;5.10;;;4.80;1.00;;;;;;5013004;28;20779;-85
2024/02/13 05:01:05;;;;;;;8.00;4.70;;;4.80;1.00;;;;;;5019428;28;20310;-85
2024/02/13 05:08:57;;;;;;;11.20;5.38;;;4.80;1.00;;;;;;5021971;28;20209;-85
2024/02/13 05:11:24;;;;;;;7.93;5.40;;;4.80;1.00;;;;;;5026408;28;20268;-85
2024/02/13 05:13:50;;;;;;;9.32;5.45;;;4.70;1.00;;;;;;5021394;28;20613;-84
2024/02/13 05:16:17;;;;;;;9.55;6.80;;;4.70;1.00;;;;;;5001493;28;20186;-85
2024/02/13 05:18:47;;;;;;;13.10;5.53;;;4.70;1.00;;;;;;5017780;28;20206;-85
2024/02/13 05:21:19;;;;;;;13.43;5.50;;;4.70;1.00;;;;;;5010008;28;20210;-84
2024/02/13 05:23:47;;;;;;;8.93;5.00;;;4.60;1.00;;;;;;5024026;28;20644;-85
2024/02/13 05:26:13;;;;;;;9.13;4.50;;;4.60;1.00;;;;;;5004543;28;20671;-84
2024/02/13 05:28:39;;;;;;;13.55;5.10;;;4.60;1.00;;;;;;5018346;28;20206;-85
2024/02/13 05:31:05;;;;;;;7.90;5.00;;;4.60;1.00;;;;;;5015185;28;20563;-84
2024/02/13 05:33:35;;;;;;;8.60;4.70;;;4.60;1.00;;;;;;5020992;28;20441;-85
2024/02/13 05:36:04;;;;;;;7.15;4.07;;;4.50;1.00;;;;;;5016719;28;20182;-84
2024/02/13 05:38:37;;;;;;;7.85;5.00;;;4.50;1.00;;;;;;5016092;28;20207;-85
2024/02/13 05:41:04;;;;;;;8.18;5.30;;;4.60;1.00;;;;;;5007046;28;20214;-85
2024/02/13 05:43:30;;;;;;;7.22;4.28;;;4.60;1.00;;;;;;4997793;28;20182;-82
2024/02/13 05:45:56;;;;;;;9.57;4.40;;;4.60;1.00;;;;;;5018332;28;20224;-85
2024/02/13 05:48:22;;;;;;;8.98;4.00;;;4.60;1.00;;;;;;5028100;28;20284;-85
2024/02/13 05:50:50;;;;;;;9.23;4.70;;;4.60;1.00;;;;;;5005876;28;20641;-85
2024/02/13 05:53:16;;;;;;;7.10;3.85;;;4.60;1.00;;;;;;4998747;28;20445;-84
2024/02/13 05:55:42;;;;;;;7.40;3.70;;;4.60;1.00;;;;;;5002214;28;20189;-85
2024/02/13 05:58:08;;;;;;;5.57;4.10;;;4.50;1.00;;;;;;5017461;28;20456;-82
2024/02/13 06:00:34;;;;;;;8.07;4.07;;;4.50;1.00;;;;;;5010926;28;20846;-84
2024/02/13 06:03:00;;;;;;;10.20;4.17;;;4.50;1.00;;;;;;5013050;28;20659;-84
2024/02/13 06:05:27;;;;;;;9.73;3.85;;;4.50;1.00;;;;;;5019090;28;20548;-83
2024/02/13 06:07:53;;;;;;;11.82;4.15;;;4.50;1.00;;;;;;5001707;28;20199;-83
2024/02/13 06:10:19;;;;;;;6.67;3.50;;;4.50;1.00;;;;;;5021839;28;20190;-83
2024/02/13 06:12:45;;;;;;;5.30;3.00;;;4.50;1.00;;;;;;5004342;28;20186;-82
2024/02/13 06:15:11;;;;;;;12.60;3.90;;;4.50;1.00;;;;;;5011927;28;20182;-84
2024/02/13 06:17:37;;;;;;;14.60;3.25;;;4.50;1.00;;;;;;5019298;28;20229;-83
2024/02/13 06:20:08;;;;;;;7.57;3.50;;;4.50;1.00;;;;;;5020042;28;20210;-85
2024/02/13 06:22:37;;;;;;;10.85;3.35;;;4.50;1.00;;;;;;5011814;28;20444;-85
2024/02/13 06:25:04;;;;;;;9.07;3.35;;;4.50;1.00;;;;;;5010907;28;20229;-85
2024/02/13 06:27:35;;;;;;;9.70;4.03;;;4.60;1.00;;;;;;5005658;28;20232;-84
2024/02/13 06:30:03;;;;;;;8.73;5.03;;;4.60;1.00;;;;;;5022552;28;20183;-84
2024/02/13 06:32:29;;;;;;;6.65;3.30;;;4.60;1.00;;;;;;5007810;28;20178;-84
2024/02/13 06:34:54;;;;;;;4.90;2.97;;;4.60;1.00;;;;;;5022744;28;20277;-84
2024/02/13 06:37:21;;;;;;;7.57;3.50;;;4.60;1.00;;;;;;5021230;28;20182;-85
2024/02/13 06:39:48;;;;;;;5.07;3.08;;;4.60;1.00;;;;;;5020751;28;20270;-84
2024/02/13 06:42:14;;;;;;;10.75;3.35;;;4.70;1.00;;;;;;5025260;28;20241;-84
2024/02/13 06:44:40;;;;;;;6.07;2.80;;;4.70;1.00;;;;;;5009582;28;20183;-83
2024/02/13 06:47:08;;;;;;;7.50;3.40;;;4.60;1.00;;;;;;5027853;28;20445;-84
2024/02/13 06:49:34;;;;;;;4.28;2.83;;;4.70;1.00;;;;;;5023005;28;20289;-84
2024/02/13 06:52:00;;;;;;;6.30;3.00;;;4.70;1.00;;;;;;5023372;28;20265;-84
2024/02/13 06:54:25;;;;;;;5.30;3.13;;;4.70;1.00;;;;;;5006677;28;20234;-84
2024/02/13 06:56:51;;;;;;;13.40;3.83;;;4.70;1.00;;;;;;5023820;28;20430;-85
2024/02/13 06:59:17;;;;;;;8.40;3.57;;;4.70;1.00;;;;;;5024915;28;20673;-84
2024/02/13 07:01:42;;;;;;;11.03;3.60;;;4.80;1.00;;;;;;5025660;28;20444;-84
2024/02/13 07:04:10;;;;;;;8.43;3.33;;;4.90;1.00;;;;;;5019262;28;20187;-84
2024/02/13 07:06:36;;;;;;;5.05;3.15;;;5.10;1.00;;;;;;5019872;28;20182;-84
2024/02/13 07:09:03;;;;;;;11.33;3.13;;;5.20;1.00;;;;;;5022803;28;20225;-84
2024/02/13 07:11:28;;;;;;;5.78;2.97;;;5.30;1.00;;;;;;5027848;28;20494;-83
2024/02/13 07:13:55;;;;;;;3.83;2.90;;;5.50;1.00;;;;;;5021456;28;20183;-85
2024/02/13 07:16:21;;;;;;;6.38;3.35;;;5.60;1.00;;;;;;5025997;28;20179;-84
2024/02/13 07:18:47;;;;;;;9.70;3.13;;;5.80;1.00;;;;;;5027272;28;20198;-84
2024/02/13 07:21:13;;;;;;;10.43;3.47;;;5.90;1.00;;;;;;5024552;28;20302;-84
2024/02/13 07:23:38;;;;;;;5.23;2.53;;;6.10;1.00;;;;;;5023988;28;20207;-85
2024/02/13 07:26:04;;;;;;;10.40;3.40;;;6.30;1.00;;;;;;5022283;28;20186;-86
2024/02/13 07:28:30;;;;;;;4.93;2.63;;;6.50;1.00;;;;;;5031948;28;20780;-83
2024/02/13 07:30:56;;;;;;;5.93;2.85;;;6.70;99.90;;;;;;5023018;28;20182;-85
2024/02/13 07:33:21;;;;;;;5.43;2.40;;;7.10;99.90;;;;;;5001063;28;20278;-84
2024/02/13 07:35:48;;;;;;;7.73;3.20;;;8.50;99.90;;;;;;5028675;28;20224;-83
2024/02/13 07:38:13;;;;;;;4.77;2.43;;;10.10;1.00;;;;;;5022893;28;20207;-84
2024/02/13 07:40:39;;;;;;;6.63;2.00;;;11.30;99.90;;;;;;5019746;28;20556;-84
2024/02/13 07:43:06;;;;;;;4.97;2.80;;;12.60;1.00;;;;;;5016047;28;20257;-84
2024/02/13 07:45:32;;;;;;;4.83;2.20;;;13.70;1.00;;;;;;5007377;28;20550;-83
2024/02/13 07:47:59;;;;;;;6.03;2.50;;;14.50;1.00;;;;;;5020925;28;20459;-84
2024/02/13 07:50:26;;;;;;;4.47;2.70;;;15.50;1.00;;;;;;5024513;28;20434;-83
2024/02/13 07:52:51;;;;;;;8.00;2.17;;;15.80;1.00;;;;;;5035077;28;20452;-85
2024/02/13 07:55:18;;;;;;;7.47;2.10;;;15.50;99.90;;;;;;5031300;28;20439;-85
2024/02/13 07:57:49;;;;;;;12.73;2.50;;;14.90;99.90;;;;;;5031746;28;20205;-85
2024/02/13 08:00:20;;;;;;;9.37;2.27;;;14.80;99.90;;;;;;5011358;28;20468;-84
2024/02/13 08:02:48;;;;;;;12.57;2.30;;;14.80;99.90;;;;;;5030810;28;20441;-83
2024/02/13 08:05:13;;;;;;;8.43;3.00;;;14.10;99.90;;;;;;5030900;28;20567;-84
2024/02/13 08:07:39;;;;;;;8.77;2.70;;;13.20;99.90;;;;;;5032142;28;20514;-85
2024/02/13 08:10:06;;;;;;;8.53;2.60;;;12.50;99.90;;;;;;5022253;28;20187;-83
2024/02/13 08:12:32;;;;;;;4.33;2.10;;;12.10;99.90;;;;;;5031418;28;20197;-84
2024/02/13 08:14:58;;;;;;;5.90;2.80;;;12.00;99.90;;;;;;5011751;28;20446;-84
2024/02/13 08:17:23;;;;;;;6.73;3.30;;;12.00;1.00;;;;;;5030295;28;20468;-83
2024/02/13 08:19:49;;;;;;;7.03;3.80;;;12.00;1.00;;;;;;5024649;28;20225;-84
2024/02/13 08:22:18;;;;;;;6.93;3.37;;;12.00;1.00;;;;;;5013088;28;20591;-84
2024/02/13 08:24:43;;;;;;;5.83;3.33;;;12.30;1.00;;;;;;5012310;28;20724;-86
2024/02/13 08:27:09;;;;;;;7.93;3.43;;;13.80;1.00;;;;;;5021683;28;20428;-85
2024/02/13 08:29:35;;;;;;;6.73;2.27;;;15.30;99.90;;;;;;5021964;28;20204;-86
2024/02/13 08:32:03;;;;;;;4.27;1.80;;;16.40;99.90;;;;;;5022622;28;20606;-86
2024/02/13 08:34:29;;;;;;;6.77;2.13;;;17.20;99.90;;;;;;5019304;28;20183;-86
2024/02/13 08:36:55;;;;;;;2.63;1.80;;;18.00;99.90;;;;;;5018325;28;20437;-85
2024/02/13 08:39:21;;;;;;;4.07;1.73;;;19.10;99.90;;;;;;4995043;28;20200;-85
2024/02/13 08:41:47;;;;;;;5.00;1.93;;;20.90;99.90;;;;;;5011055;28;20452;-85
2024/02/13 08:44:12;;;;;;;9.50;2.17;;;22.00;99.90;;;;;;5012268;28;20696;-86
2024/02/13 08:46:38;;;;;;;4.07;1.77;;;22.80;99.90;;;;;;5012622;28;20606;-85
2024/02/13 08:49:04;;;;;;;4.00;1.70;;;22.50;99.90;;;;;;5012890;28;20647;-86
2024/02/13 08:51:30;;;;;;;3.30;2.00;;;21.80;99.90;;;;;;5011837;28;20190;-84
2024/02/13 08:53:56;;;;;;;3.70;2.30;;;21.40;99.90;;;;;;5016550;28;20783;-85
2024/02/13 08:56:22;;;;;;;4.53;1.93;;;21.90;99.90;;;;;;5019527;28;20198;-85
2024/02/13 08:58:52;;;;;;;3.70;1.70;;;21.60;99.90;;;;;;5018855;28;20221;-85
2024/02/13 09:01:22;;;;;;;4.57;1.40;;;21.70;99.90;;;;;;5022898;28;20218;-86
2024/02/13 09:03:48;;;;;;;5.53;1.67;;;22.90;99.90;;;;;;5013485;28;20444;-85
2024/02/13 09:06:16;;;;;;;3.20;1.83;;;23.80;99.90;;;;;;5023412;28;21367;-85
2024/02/13 09:08:43;;;;;;;6.93;1.60;;;24.20;99.90;;;;;;5022798;28;20454;-85
2024/02/13 09:11:10;;;;;;;4.97;2.13;;;24.30;99.90;;;;;;5020367;28;20444;-84
2024/02/13 09:13:36;;;;;;;6.53;1.50;;;24.20;99.90;;;;;;5026645;28;20483;-85
2024/02/13 09:16:02;;;;;;;5.50;1.63;;;24.40;99.90;;;;;;5020889;28;20854;-86
2024/02/13 09:18:28;;;;;;;6.53;1.70;;;24.80;99.90;;;;;;5013647;28;20209;-85
2024/02/13 09:20:54;;;;;;;5.27;1.63;;;25.80;99.90;;;;;;5013628;28;20461;-85
2024/02/13 09:23:20;;;;;;;6.20;1.80;;;26.30;99.90;;;;;;5011351;28;20182;-86
2024/02/13 09:25:49;;;;;;;4.20;1.73;;;26.70;99.90;;;;;;5018054;28;20560;-86
2024/02/13 09:28:18;;;;;;;4.40;1.87;;;27.00;99.90;;;;;;5021384;28;20488;-85
2024/02/13 09:30:47;;;;;;;4.30;1.67;;;26.60;99.90;;;;;;5018833;28;20434;-86
2024/02/13 09:33:14;;;;;;;5.00;1.60;;;26.70;99.90;;;;;;5019906;28;20480;-85
2024/02/13 09:35:40;;;;;;;5.70;2.10;;;26.20;99.90;;;;;;5023336;28;20441;-87
2024/02/13 09:38:06;;;;;;;3.97;1.50;;;26.80;99.90;;;;;;5022023;28;20209;-85
2024/02/13 09:40:33;;;;;;;2.80;1.77;;;27.30;99.90;;;;;;5020936;28;20245;-86
2024/02/13 09:42:58;;;;;;;3.43;1.50;;;27.90;99.90;;;;;;5018385;28;20426;-86
2024/02/13 09:45:26;;;;;;;8.70;2.10;;;27.90;99.90;;;;;;5002328;28;20442;-85
2024/02/13 09:47:52;;;;;;;4.20;2.00;;;28.20;99.90;;;;;;5022640;28;20190;-85
2024/02/13 09:50:18;;;;;;;6.93;2.50;;;27.90;99.90;;;;;;5021551;28;20957;-85
2024/02/13 09:52:47;;;;;;;4.93;2.10;;;27.20;99.90;;;;;;5005001;28;20179;-86
2024/02/13 09:55:14;;;;;;;7.60;2.33;;;27.20;99.90;;;;;;5006116;28;20190;-86
2024/02/13 09:57:41;;;;;;;8.07;2.17;;;26.70;99.90;;;;;;5028519;28;20457;-85
2024/02/13 10:00:08;;;;;;;4.77;1.90;;;24.80;99.90;;;;;;5022709;28;20473;-85
2024/02/13 10:02:40;;;;;;;4.87;2.07;;;25.20;99.90;;;;;;5027798;28;20430;-85
2024/02/13 10:05:10;;;;;;;3.70;2.00;;;25.20;99.90;;;;;;5018555;28;20463;-84
2024/02/13 10:07:42;;;;;;;8.07;2.50;;;25.80;99.90;;;;;;5014513;28;20511;-86
2024/02/13 10:10:13;;;;;;;3.40;1.50;;;26.40;99.90;;;;;;5017319;28;20448;-86
2024/02/13 10:12:49;;;;;;;3.43;1.80;;;26.80;99.90;;;;;;5018830;28;20434;-86
2024/02/13 10:15:15;;;;;;;8.37;2.20;;;27.00;99.90;;;;;;5018873;28;20490;-85
2024/02/13 10:17:42;;;;;;;5.60;2.20;;;26.80;99.90;;;;;;5020331;28;20463;-85
2024/02/13 10:20:10;;;;;;;4.90;1.80;;;27.20;99.90;;;;;;5015419;28;20485;-84
2024/02/13 10:22:46;;;;;;;3.27;1.67;;;27.40;99.90;;;;;;5016991;28;20465;-84
2024/02/13 10:25:13;;;;;;;3.83;1.80;;;27.50;99.90;;;;;;5016328;28;20455;-85
2024/02/13 10:27:40;;;;;;;3.50;1.50;;;27.70;99.90;;;;;;5018361;28;20986;-84
2024/02/13 10:30:06;;;;;;;6.20;1.70;;;27.50;99.90;;;;;;5013985;28;20796;-85
2024/02/13 10:32:38;;;;;;;4.07;1.50;;;27.40;99.90;;;;;;5009263;28;20532;-85
2024/02/13 10:35:07;;;;;;;5.10;1.63;;;26.60;99.90;;;;;;5020080;28;20469;-85
2024/02/13 10:37:33;;;;;;;6.07;1.90;;;25.30;99.90;;;;;;5032465;28;20448;-85
2024/02/13 10:40:02;;;;;;;3.50;1.67;;;24.10;99.90;;;;;;5017508;28;20551;-84
2024/02/13 10:42:37;;;;;;;4.40;1.37;;;23.20;99.90;;;;;;5018580;28;20215;-84
2024/02/13 10:45:09;;;;;;;3.30;1.67;;;21.70;99.90;;;;;;5021655;28;20453;-82
2024/02/13 10:47:41;;;;;;;2.53;1.60;;;20.60;99.90;;;;;;4998107;28;20506;-85
2024/02/13 10:50:07;;;;;;;3.40;1.87;;;20.00;99.90;;;;;;5014284;28;20864;-84
2024/02/13 10:52:35;;;;;;;3.23;1.70;;;19.40;99.90;;;;;;5026191;28;20425;-84
2024/02/13 10:55:06;;;;;;;5.70;1.70;;;19.10;99.90;;;;;;5018476;28;20432;-85
2024/02/13 10:57:33;;;;;;;5.00;1.73;;;18.90;99.90;;;;;;5028057;28;21040;-84
2024/02/13 11:00:01;;;;;;;12.60;2.23;;;19.00;99.90;;;;;;5030075;28;20466;-86
2024/02/13 11:02:29;;;;;;;4.90;1.57;;;18.60;99.90;;;;;;5023720;28;20436;-86
2024/02/13 11:04:57;;;;;;;2.97;1.40;;;18.30;99.90;;;;;;5021743;28;20442;-85
2024/02/13 11:07:23;;;;;;;7.40;1.63;;;18.30;99.90;;;;;;5024207;28;20879;-86
2024/02/13 11:09:50;;;;;;;4.50;1.33;;;18.90;99.90;;;;;;5026629;28;20479;-85
2024/02/13 11:12:15;;;;;;;3.53;1.60;;;19.10;99.90;;;;;;5032042;28;20434;-85
2024/02/13 11:14:41;;;;;;;4.33;1.50;;;18.80;99.90;;;;;;5026104;28;20461;-84
2024/02/13 11:17:10;;;;;;;3.30;1.50;;;18.60;99.90;;;;;;5027374;28;20214;-84
2024/02/13 11:19:37;;;;;;;4.10;1.43;;;18.30;99.90;;;;;;5023227;28;20234;-84
2024/02/13 11:22:04;;;;;;;7.13;2.10;;;18.00;99.90;;;;;;5031490;28;20954;-87
2024/02/13 11:24:48;;;;;;;5.70;1.90;;;18.80;99.90;;;;;;5031477;28;20433;-86
2024/02/13 11:27:17;;;;;;;5.43;1.90;;;19.70;99.90;;;;;;5030455;28;20487;-84
2024/02/13 11:29:53;;;;;;;4.33;1.87;;;19.60;99.90;;;;;;5007296;28;20431;-85
2024/02/13 11:32:32;;;;;;;5.00;1.73;;;19.50;99.90;;;;;;5030977;28;20509;-84
2024/02/13 11:34:58;;;;;;;3.57;1.80;;;18.90;99.90;;;;;;5027842;28;20435;-83
2024/02/13 11:37:27;;;;;;;6.10;1.93;;;19.10;99.90;;;;;;5030573;28;20433;-83
2024/02/13 11:39:59;;;;;;;5.10;1.67;;;19.30;99.90;;;;;;5031019;28;20465;-83
2024/02/13 11:42:34;;;;;;;6.20;2.00;;;20.60;99.90;;;;;;5023649;28;20524;-84
2024/02/13 11:45:05;;;;;;;3.43;1.50;;;21.50;99.90;;;;;;5014952;28;20548;-84
2024/02/13 11:47:32;;;;;;;7.00;1.50;;;22.90;99.90;;;;;;5020982;28;20448;-84
2024/02/13 11:49:58;;;;;;;4.80;1.53;;;23.70;99.90;;;;;;5012199;28;20437;-84
2024/02/13 11:52:24;;;;;;;4.50;1.83;;;23.90;99.90;;;;;;5023533;28;20439;-82
2024/02/13 11:54:50;;;;;;;6.67;1.63;;;24.40;99.90;;;;;;5024476;28;20268;-84
2024/02/13 11:57:18;;;;;;;3.80;1.60;;;24.30;99.90;;;;;;5020563;28;20289;-85
2024/02/13 11:59:55;;;;;;;4.17;1.83;;;24.60;99.90;;;;;;5014079;28;20455;-84
2024/02/13 12:02:21;;;;;;;2.27;1.50;;;24.70;99.90;;;;;;5016617;28;20437;-83
2024/02/13 12:04:48;;;;;;;8.20;1.73;;;25.00;99.90;;;;;;5004806;28;21005;-84
2024/02/13 12:07:13;;;;;;;3.67;1.30;;;25.20;99.90;;;;;;5000616;28;20213;-82
2024/02/13 12:09:42;;;;;;;5.60;1.40;;;23.90;99.90;;;;;;5016704;28;20465;-84
2024/02/13 12:12:10;;;;;;;5.47;1.57;;;23.00;99.90;;;;;;5010226;28;20238;-84
2024/02/13 12:14:36;;;;;;;3.43;1.70;;;22.30;99.90;;;;;;5021606;28;20527;-83
2024/02/13 12:17:09;;;;;;;5.20;2.00;;;22.30;99.90;;;;;;5006609;28;20452;-84
2024/02/13 12:19:41;;;;;;;3.60;1.67;;;22.40;99.90;;;;;;5014977;28;20470;-84
2024/02/13 12:22:16;;;;;;;4.20;1.10;;;22.90;99.90;;;;;;5015795;28;20445;-83
2024/02/13 12:24:44;;;;;;;6.53;2.60;;;23.30;99.90;;;;;;5016569;28;20440;-85
2024/02/13 12:27:10;;;;;;;4.80;1.20;;;23.60;99.90;;;;;;5024152;28;20524;-84
2024/02/13 12:29:38;;;;;;;2.90;1.23;;;23.60;99.90;;;;;;5022151;28;20492;-86
2024/02/13 12:32:09;;;;;;;2.80;1.30;;;24.10;99.90;;;;;;5011352;28;20936;-84
2024/02/13 12:34:36;;;;;;;5.03;1.70;;;23.80;99.90;;;;;;5023311;28;20449;-84
2024/02/13 12:37:04;;;;;;;2.57;1.30;;;24.30;99.90;;;;;;5022669;28;21041;-85
2024/02/13 12:39:31;;;;;;;5.80;1.90;;;24.30;99.90;;;;;;5024223;28;20546;-84
2024/02/13 12:41:59;;;;;;;2.87;0.97;;;24.10;99.90;;;;;;5024026;28;20457;-84
2024/02/13 12:44:24;;;;;;;6.20;1.77;;;23.00;99.90;;;;;;5014118;28;20449;-83
2024/02/13 12:46:51;;;;;;;4.30;1.40;;;22.50;99.90;;;;;;5015938;28;21001;-83
2024/02/13 12:49:19;;;;;;;4.17;1.10;;;22.80;99.90;;;;;;5007967;28;20293;-85
2024/02/13 12:51:45;;;;;;;7.07;1.37;;;23.20;99.90;;;;;;5018906;28;20982;-84
2024/02/13 12:54:12;;;;;;;3.90;1.53;;;23.30;99.90;;;;;;5019058;28;20467;-84
2024/02/13 12:56:40;;;;;;;5.17;1.20;;;22.80;99.90;;;;;;5003381;28;20446;-84